Time;durP1;ratioP1;P1;durP2;ratioP2;P2;SDS_P1;SDS_P2;PMS_P1;PMS_P2;Temp;Humidity;BMP_temperature;BMP_pressure;BME280_temperature;BME280_humidity;BME280_pressure;Samples;Min_cycle;Max_cycle;Signal;HPM_P1;HPM_P2
2023/01/25 00:01:55;;;;;;;0.50;0.40;;;1.40;99.90;;;;;;5058150;28;20263;-81
2023/01/25 00:04:23;;;;;;;0.50;0.40;;;1.40;99.90;;;;;;5058265;28;20194;-79
2023/01/25 00:06:51;;;;;;;1.15;1.15;;;1.30;99.90;;;;;;5059329;28;20596;-79
2023/01/25 00:09:19;;;;;;;2.83;2.63;;;1.30;99.90;;;;;;5059682;28;20206;-80
2023/01/25 00:11:46;;;;;;;0.73;0.65;;;1.30;99.90;;;;;;5058903;28;20285;-80
2023/01/25 00:14:14;;;;;;;3.10;2.85;;;1.30;99.90;;;;;;5059861;28;20281;-80
2023/01/25 00:16:41;;;;;;;0.50;0.50;;;1.30;99.90;;;;;;5059490;28;20275;-79
2023/01/25 00:19:09;;;;;;;1.45;1.35;;;1.30;99.90;;;;;;5058200;28;20193;-80
2023/01/25 00:21:37;;;;;;;0.50;0.50;;;1.30;99.90;;;;;;5059130;28;20680;-80
2023/01/25 00:24:05;;;;;;;0.50;0.40;;;1.30;99.90;;;;;;5059762;28;20201;-81
2023/01/25 00:26:33;;;;;;;0.50;0.40;;;1.30;99.90;;;;;;5059115;28;20317;-79
2023/01/25 00:29:00;;;;;;;1.30;1.20;;;1.20;99.90;;;;;;5058731;28;20632;-80
2023/01/25 00:34:51;;;;;;;0.50;0.40;;;1.20;99.90;;;;;;5058999;28;20216;-80
2023/01/25 00:37:24;;;;;;;0.93;0.93;;;1.00;99.90;;;;;;5060392;28;20199;-78
2023/01/25 00:39:52;;;;;;;0.82;0.80;;;1.10;99.90;;;;;;5062822;28;20258;-80
2023/01/25 00:42:19;;;;;;;0.50;0.40;;;1.10;99.90;;;;;;5062599;28;20191;-79
2023/01/25 00:44:47;;;;;;;0.70;0.70;;;1.10;99.90;;;;;;5062146;28;20223;-80
2023/01/25 00:47:15;;;;;;;0.50;0.40;;;1.10;99.90;;;;;;5062093;28;20217;-80
2023/01/25 00:49:44;;;;;;;2.45;2.22;;;1.20;99.90;;;;;;5063434;28;20304;-80
2023/01/25 00:52:11;;;;;;;3.20;0.95;;;1.20;99.90;;;;;;5064180;28;20365;-80
2023/01/25 00:54:39;;;;;;;0.50;0.40;;;1.10;99.90;;;;;;5063963;28;20201;-80
2023/01/25 00:57:07;;;;;;;0.70;0.70;;;1.10;99.90;;;;;;5062919;28;20214;-81
2023/01/25 00:59:34;;;;;;;0.50;0.40;;;1.00;99.90;;;;;;5062623;28;20222;-80
2023/01/25 01:02:02;;;;;;;0.50;0.40;;;1.00;99.90;;;;;;5062187;28;20198;-80
2023/01/25 01:04:28;;;;;;;0.50;0.40;;;0.90;99.90;;;;;;5061592;28;20229;-79
2023/01/25 01:06:55;;;;;;;0.50;0.40;;;0.90;99.90;;;;;;5062712;28;20666;-80
2023/01/25 01:09:23;;;;;;;0.50;0.50;;;0.90;99.90;;;;;;5062359;28;20195;-80
2023/01/25 01:11:50;;;;;;;2.38;2.28;;;0.90;99.90;;;;;;5062273;28;20202;-80
2023/01/25 01:17:40;;;;;;;3.45;3.25;;;0.80;99.90;;;;;;5062267;28;20205;-81
2023/01/25 01:20:08;;;;;;;1.00;1.00;;;0.90;99.90;;;;;;5061932;28;20230;-80
2023/01/25 01:22:35;;;;;;;1.98;0.98;;;0.90;99.90;;;;;;5061829;28;20885;-80
2023/01/25 01:25:02;;;;;;;0.65;0.65;;;0.90;99.90;;;;;;5061917;28;20258;-80
2023/01/25 01:27:29;;;;;;;1.13;1.02;;;0.90;99.90;;;;;;5062385;28;20228;-80
2023/01/25 01:29:55;;;;;;;0.50;0.40;;;0.90;99.90;;;;;;5061868;28;20254;-79
2023/01/25 01:32:22;;;;;;;3.20;2.25;;;0.90;99.90;;;;;;5062164;28;20202;-79
2023/01/25 01:34:50;;;;;;;0.80;0.80;;;1.00;99.90;;;;;;5062077;28;20210;-80
2023/01/25 01:37:17;;;;;;;11.40;9.73;;;1.00;99.90;;;;;;5061800;28;20202;-80
2023/01/25 01:39:44;;;;;;;0.60;0.60;;;1.00;99.90;;;;;;5061575;28;20190;-80
2023/01/25 01:42:11;;;;;;;2.45;2.25;;;1.00;99.90;;;;;;5061777;28;20248;-79
2023/01/25 01:44:45;;;;;;;1.75;1.70;;;1.00;99.90;;;;;;5061593;28;20264;-79
2023/01/25 01:47:15;;;;;;;8.40;4.93;;;1.00;99.90;;;;;;5061817;28;20250;-79
2023/01/25 01:49:46;;;;;;;0.50;0.40;;;0.90;99.90;;;;;;5061767;28;20213;-80
2023/01/25 01:52:18;;;;;;;0.50;0.40;;;0.90;99.90;;;;;;5062148;28;20195;-78
2023/01/25 01:54:49;;;;;;;0.60;0.40;;;0.80;99.90;;;;;;5061578;28;20579;-81
2023/01/25 01:57:19;;;;;;;1.48;1.48;;;0.80;99.90;;;;;;5062676;28;20194;-80
2023/01/25 01:59:51;;;;;;;0.50;0.50;;;0.80;99.90;;;;;;5062747;28;20198;-80
2023/01/25 02:02:18;;;;;;;1.45;0.82;;;0.80;99.90;;;;;;5062891;28;20222;-80
2023/01/25 02:04:49;;;;;;;0.73;0.73;;;0.70;99.90;;;;;;5062220;28;20222;-80
2023/01/25 02:07:22;;;;;;;0.50;0.50;;;0.70;99.90;;;;;;5061977;28;20615;-79
2023/01/25 02:09:51;;;;;;;3.25;3.05;;;0.70;99.90;;;;;;5061891;28;20218;-80
2023/01/25 02:12:18;;;;;;;1.00;1.00;;;0.70;99.90;;;;;;5061780;28;20261;-79
2023/01/25 02:14:49;;;;;;;0.50;0.40;;;0.70;99.90;;;;;;5061134;28;20707;-80
2023/01/25 02:17:18;;;;;;;2.17;1.30;;;0.70;99.90;;;;;;5061510;28;20194;-79
2023/01/25 02:19:54;;;;;;;1.15;1.05;;;0.70;99.90;;;;;;5061652;28;20245;-80
2023/01/25 02:22:30;;;;;;;1.15;1.15;;;0.70;99.90;;;;;;5062046;28;20186;-80
2023/01/25 02:25:05;;;;;;;2.35;1.88;;;0.60;99.90;;;;;;5061551;28;20222;-79
2023/01/25 02:27:35;;;;;;;0.52;0.52;;;0.60;99.90;;;;;;5062057;28;20256;-79
2023/01/25 02:30:03;;;;;;;2.03;1.60;;;0.40;99.90;;;;;;5061037;28;20312;-79
2023/01/25 02:32:29;;;;;;;0.50;0.40;;;0.40;99.90;;;;;;5061798;28;20217;-79
2023/01/25 02:34:56;;;;;;;3.80;3.60;;;0.40;99.90;;;;;;5061778;28;20316;-80
2023/01/25 02:37:23;;;;;;;0.50;0.40;;;0.40;99.90;;;;;;5061695;28;20249;-79
2023/01/25 02:39:51;;;;;;;0.50;0.40;;;0.50;99.90;;;;;;5062199;28;20266;-79
2023/01/25 02:42:19;;;;;;;14.02;4.88;;;0.50;99.90;;;;;;5061639;28;20221;-79
2023/01/25 02:44:48;;;;;;;0.50;0.40;;;0.60;99.90;;;;;;5061220;28;20246;-81
2023/01/25 02:47:15;;;;;;;0.50;0.40;;;0.50;99.90;;;;;;5061732;28;20615;-79
2023/01/25 02:49:42;;;;;;;0.80;0.80;;;0.50;99.90;;;;;;5061588;28;20194;-80
2023/01/25 02:52:09;;;;;;;0.50;0.40;;;0.50;99.90;;;;;;5061028;28;20202;-80
2023/01/25 02:54:36;;;;;;;0.50;0.40;;;0.40;99.90;;;;;;5061268;28;20261;-79
2023/01/25 02:57:02;;;;;;;0.50;0.40;;;0.40;99.90;;;;;;5061094;28;20262;-79
2023/01/25 02:59:31;;;;;;;0.50;0.47;;;0.50;99.90;;;;;;5060747;28;20191;-79
2023/01/25 03:01:58;;;;;;;0.50;0.40;;;0.50;99.90;;;;;;5061456;28;20198;-79
2023/01/25 03:04:25;;;;;;;0.50;0.50;;;0.60;99.90;;;;;;5061008;28;20221;-80
2023/01/25 03:06:51;;;;;;;0.68;0.68;;;0.70;99.90;;;;;;5061230;28;20195;-80
2023/01/25 03:09:18;;;;;;;0.50;0.43;;;0.70;99.90;;;;;;5060385;28;20346;-80
2023/01/25 03:11:45;;;;;;;1.85;1.75;;;0.70;99.90;;;;;;5060784;28;20246;-80
2023/01/25 03:14:12;;;;;;;1.58;1.48;;;0.60;99.90;;;;;;5060353;28;20229;-79
2023/01/25 03:16:40;;;;;;;0.50;0.47;;;0.60;99.90;;;;;;5057831;28;20289;-80
2023/01/25 03:19:07;;;;;;;0.50;0.50;;;0.60;99.90;;;;;;5058552;28;20293;-81
2023/01/25 03:21:34;;;;;;;0.50;0.40;;;0.70;99.90;;;;;;5058353;28;20254;-80
2023/01/25 03:24:02;;;;;;;2.03;1.92;;;0.80;99.90;;;;;;5058410;28;20306;-80
2023/01/25 03:26:29;;;;;;;0.50;0.50;;;0.80;99.90;;;;;;5060202;28;20215;-79
2023/01/25 03:28:56;;;;;;;0.52;0.50;;;0.70;99.90;;;;;;5076183;28;20182;-80
2023/01/25 03:31:23;;;;;;;1.35;1.25;;;0.70;99.90;;;;;;5076053;28;20230;-80
2023/01/25 03:33:52;;;;;;;0.50;0.50;;;0.80;99.90;;;;;;5075606;28;20174;-80
2023/01/25 03:36:19;;;;;;;0.50;0.50;;;0.80;99.90;;;;;;5059105;28;20210;-80
2023/01/25 03:38:45;;;;;;;0.70;0.70;;;0.70;99.90;;;;;;5058159;28;20190;-79
2023/01/25 03:41:13;;;;;;;0.50;0.40;;;0.70;99.90;;;;;;5058593;28;20195;-80
2023/01/25 03:43:40;;;;;;;0.50;0.40;;;0.60;99.90;;;;;;5057923;28;20896;-79
2023/01/25 03:46:07;;;;;;;0.50;0.40;;;0.60;99.90;;;;;;5057607;28;20306;-79
2023/01/25 03:48:34;;;;;;;0.50;0.50;;;0.60;99.90;;;;;;5057933;28;20225;-79
2023/01/25 03:51:02;;;;;;;0.50;0.40;;;0.50;99.90;;;;;;5057758;28;20309;-80
2023/01/25 03:53:31;;;;;;;0.50;0.40;;;0.40;99.90;;;;;;5057540;28;20286;-80
2023/01/25 03:56:00;;;;;;;2.47;2.38;;;0.40;99.90;;;;;;5057260;28;20253;-80
2023/01/25 03:58:28;;;;;;;0.50;0.40;;;0.40;99.90;;;;;;5057362;28;20206;-77
2023/01/25 04:00:56;;;;;;;2.58;2.35;;;0.50;99.90;;;;;;5057424;28;20222;-80
2023/01/25 04:03:24;;;;;;;0.50;0.45;;;0.60;99.90;;;;;;5057476;28;20282;-80
2023/01/25 04:05:51;;;;;;;0.50;0.40;;;0.50;99.90;;;;;;5056998;28;20311;-80
2023/01/25 04:08:19;;;;;;;0.50;0.50;;;0.50;99.90;;;;;;5057119;28;20285;-80
2023/01/25 04:10:52;;;;;;;0.60;0.60;;;0.50;99.90;;;;;;5056923;28;20237;-80
2023/01/25 04:13:19;;;;;;;0.50;0.40;;;0.60;99.90;;;;;;5056945;28;20268;-79
2023/01/25 04:15:46;;;;;;;3.70;2.53;;;0.70;99.90;;;;;;5056003;28;20242;-81
2023/01/25 04:18:13;;;;;;;4.47;3.95;;;0.70;99.90;;;;;;5057997;28;20194;-80
2023/01/25 04:20:40;;;;;;;3.58;3.13;;;0.60;99.90;;;;;;5057525;28;20277;-80
2023/01/25 04:23:08;;;;;;;0.50;0.50;;;0.60;99.90;;;;;;5057628;28;20281;-80
2023/01/25 04:25:36;;;;;;;3.28;1.80;;;0.50;99.90;;;;;;5057866;28;20211;-79
2023/01/25 04:28:03;;;;;;;6.30;2.63;;;0.50;99.90;;;;;;5056979;28;20205;-80
2023/01/25 04:30:30;;;;;;;2.78;2.58;;;0.40;99.90;;;;;;5057156;28;20217;-77
2023/01/25 04:32:57;;;;;;;0.50;0.50;;;0.30;99.90;;;;;;5055980;28;20281;-79
2023/01/25 04:35:24;;;;;;;7.65;4.82;;;0.20;99.90;;;;;;5057023;28;20314;-78
2023/01/25 04:37:54;;;;;;;0.93;0.93;;;0.20;99.90;;;;;;5056394;28;20704;-80
2023/01/25 04:40:21;;;;;;;0.50;0.50;;;0.10;99.90;;;;;;5056834;28;20206;-79
2023/01/25 04:42:49;;;;;;;2.00;1.80;;;0.10;99.90;;;;;;5056637;28;20202;-81
2023/01/25 04:45:16;;;;;;;0.50;0.40;;;0.10;99.90;;;;;;5056504;28;20217;-80
2023/01/25 04:47:43;;;;;;;7.60;3.45;;;0.00;99.90;;;;;;5057216;28;20199;-79
2023/01/25 04:50:11;;;;;;;0.50;0.50;;;-0.10;99.90;;;;;;5056599;28;20198;-79
2023/01/25 04:52:38;;;;;;;0.70;0.70;;;0.00;99.90;;;;;;5057193;28;20326;-80
2023/01/25 04:55:05;;;;;;;0.98;0.98;;;0.00;99.90;;;;;;5057011;28;20301;-79
2023/01/25 04:57:32;;;;;;;15.30;13.60;;;0.10;99.90;;;;;;5057224;28;20324;-79
2023/01/25 05:00:00;;;;;;;1.67;1.38;;;0.10;99.90;;;;;;5056968;28;20209;-79
2023/01/25 05:02:27;;;;;;;1.15;0.70;;;0.10;99.90;;;;;;5056879;28;20241;-80
2023/01/25 05:04:54;;;;;;;5.35;3.03;;;0.10;99.90;;;;;;5057082;28;20230;-81
2023/01/25 05:07:21;;;;;;;0.50;0.40;;;0.10;99.90;;;;;;5057479;28;20278;-81
2023/01/25 05:09:47;;;;;;;0.50;0.50;;;0.10;99.90;;;;;;5057516;28;20277;-79
2023/01/25 05:12:14;;;;;;;0.50;0.40;;;0.10;99.90;;;;;;5057329;28;20210;-79
2023/01/25 05:14:41;;;;;;;0.50;0.50;;;0.10;99.90;;;;;;5056953;28;20260;-80
2023/01/25 05:17:09;;;;;;;3.65;3.35;;;0.10;99.90;;;;;;5057680;28;20644;-79
2023/01/25 05:19:36;;;;;;;0.73;0.73;;;0.10;99.90;;;;;;5057052;28;20220;-79
2023/01/25 05:22:06;;;;;;;0.50;0.50;;;0.10;99.90;;;;;;5058416;28;20656;-79
2023/01/25 05:24:34;;;;;;;0.50;0.47;;;0.10;99.90;;;;;;5060209;28;20256;-79
2023/01/25 05:27:05;;;;;;;0.80;0.80;;;0.20;99.90;;;;;;5060893;28;20198;-80
2023/01/25 05:29:35;;;;;;;2.25;2.15;;;0.20;99.90;;;;;;5060438;28;20190;-79
2023/01/25 05:32:05;;;;;;;0.98;0.73;;;0.20;99.90;;;;;;5060575;28;20221;-80
2023/01/25 05:34:33;;;;;;;1.88;1.77;;;0.20;99.90;;;;;;5060149;28;20297;-80
2023/01/25 05:37:01;;;;;;;0.50;0.40;;;0.20;99.90;;;;;;5061092;28;20197;-79
2023/01/25 05:39:28;;;;;;;0.50;0.43;;;0.20;99.90;;;;;;5059368;28;20197;-80
2023/01/25 05:41:55;;;;;;;0.50;0.40;;;0.20;99.90;;;;;;5060265;28;20281;-79
2023/01/25 05:44:22;;;;;;;0.50;0.40;;;0.20;99.90;;;;;;5059438;28;20199;-79
2023/01/25 05:46:49;;;;;;;2.38;2.28;;;0.20;99.90;;;;;;5061497;28;20199;-79
2023/01/25 05:49:16;;;;;;;8.57;4.13;;;0.30;99.90;;;;;;5060620;28;20206;-80
2023/01/25 05:51:44;;;;;;;0.50;0.40;;;0.30;99.90;;;;;;5060210;28;20572;-79
2023/01/25 05:54:13;;;;;;;4.57;4.18;;;0.30;99.90;;;;;;5059195;28;20203;-79
2023/01/25 05:56:40;;;;;;;2.58;2.38;;;0.20;99.90;;;;;;5060402;28;20222;-79
2023/01/25 05:59:07;;;;;;;1.88;1.15;;;0.30;99.90;;;;;;5061397;28;20280;-80
2023/01/25 06:01:34;;;;;;;0.50;0.40;;;0.40;99.90;;;;;;5060404;28;20289;-79
2023/01/25 06:04:01;;;;;;;20.77;5.55;;;0.40;99.90;;;;;;5061134;28;20281;-79
2023/01/25 06:06:28;;;;;;;5.22;5.00;;;0.40;99.90;;;;;;5077764;28;20278;-79
2023/01/25 06:08:56;;;;;;;0.50;0.40;;;0.30;99.90;;;;;;5076928;28;20306;-80
2023/01/25 06:11:24;;;;;;;0.98;0.98;;;0.20;99.90;;;;;;5077621;28;20255;-80
2023/01/25 06:13:51;;;;;;;0.50;0.40;;;0.30;99.90;;;;;;5067799;28;20222;-79
2023/01/25 06:16:19;;;;;;;1.20;1.20;;;0.20;99.90;;;;;;5077119;28;20230;-80
2023/01/25 06:18:46;;;;;;;0.50;0.40;;;0.20;99.90;;;;;;5075685;28;20218;-80
2023/01/25 06:21:13;;;;;;;0.70;0.70;;;0.30;99.90;;;;;;5075235;28;20230;-80
2023/01/25 06:23:40;;;;;;;1.95;0.90;;;0.20;99.90;;;;;;5074586;28;20297;-79
2023/01/25 06:26:12;;;;;;;0.65;0.63;;;0.20;99.90;;;;;;5063452;28;20250;-80
2023/01/25 06:28:40;;;;;;;0.50;0.40;;;0.10;99.90;;;;;;5062714;28;20193;-80
2023/01/25 06:31:08;;;;;;;1.35;1.25;;;0.00;99.90;;;;;;5060877;28;20260;-80
2023/01/25 06:33:36;;;;;;;0.50;0.40;;;0.00;99.90;;;;;;5060135;28;20206;-78
2023/01/25 06:36:05;;;;;;;2.20;2.10;;;0.10;99.90;;;;;;5063465;28;20269;-79
2023/01/25 06:38:33;;;;;;;0.50;0.40;;;0.10;99.90;;;;;;5060886;28;20196;-81
2023/01/25 06:41:00;;;;;;;0.50;0.40;;;0.10;99.90;;;;;;5060849;28;20194;-81
2023/01/25 06:43:29;;;;;;;0.60;0.60;;;0.10;99.90;;;;;;5059882;28;20198;-79
2023/01/25 06:46:00;;;;;;;0.50;0.40;;;0.10;99.90;;;;;;5058962;28;20305;-82
2023/01/25 06:48:27;;;;;;;0.50;0.40;;;0.20;99.90;;;;;;5060809;28;20294;-81
2023/01/25 06:50:55;;;;;;;1.00;1.00;;;0.30;99.90;;;;;;5059158;28;20281;-81
2023/01/25 06:53:24;;;;;;;0.50;0.50;;;0.30;99.90;;;;;;5060398;28;20207;-82
2023/01/25 06:55:57;;;;;;;1.35;0.70;;;0.30;99.90;;;;;;5058501;28;20301;-81
2023/01/25 06:58:24;;;;;;;0.60;0.40;;;0.20;99.90;;;;;;5059427;28;20190;-81
2023/01/25 07:00:52;;;;;;;0.82;0.82;;;0.20;99.90;;;;;;5059677;28;20232;-80
2023/01/25 07:03:19;;;;;;;3.78;3.30;;;0.20;99.90;;;;;;5060458;28;20271;-82
2023/01/25 07:05:48;;;;;;;12.63;11.50;;;0.30;99.90;;;;;;5058353;28;20217;-81
2023/01/25 07:08:15;;;;;;;0.52;0.52;;;0.50;99.90;;;;;;5059123;28;20229;-80
2023/01/25 07:10:41;;;;;;;3.28;3.08;;;0.50;99.90;;;;;;5059295;28;20274;-81
2023/01/25 07:13:08;;;;;;;0.80;0.77;;;0.50;99.90;;;;;;5057083;28;20309;-80
2023/01/25 07:15:35;;;;;;;2.28;2.17;;;0.50;99.90;;;;;;5058161;28;20759;-81
2023/01/25 07:18:03;;;;;;;4.85;1.77;;;0.40;99.90;;;;;;5058816;28;20259;-80
2023/01/25 07:20:30;;;;;;;1.98;1.65;;;0.40;99.90;;;;;;5056576;28;20209;-82
2023/01/25 07:22:58;;;;;;;0.52;0.50;;;0.40;99.90;;;;;;5057290;28;20231;-81
2023/01/25 07:25:25;;;;;;;2.28;1.70;;;0.40;99.90;;;;;;5057938;28;20630;-80
2023/01/25 07:27:52;;;;;;;0.70;0.70;;;0.30;99.90;;;;;;5055883;28;20230;-81
2023/01/25 07:30:20;;;;;;;0.98;0.98;;;0.30;99.90;;;;;;5056234;28;20234;-81
2023/01/25 07:32:47;;;;;;;6.20;2.25;;;0.40;99.90;;;;;;5055956;28;20224;-83
2023/01/25 07:35:15;;;;;;;2.45;1.55;;;0.40;99.90;;;;;;5055668;28;20219;-83
2023/01/25 07:37:42;;;;;;;0.50;0.40;;;0.40;99.90;;;;;;5055183;28;20197;-81
2023/01/25 07:40:10;;;;;;;0.50;0.50;;;0.30;99.90;;;;;;5055757;28;20285;-81
2023/01/25 07:42:37;;;;;;;3.17;2.97;;;0.30;99.90;;;;;;5055643;28;20201;-79
2023/01/25 07:45:05;;;;;;;1.35;1.25;;;0.30;99.90;;;;;;5054991;28;20297;-83
2023/01/25 07:47:31;;;;;;;1.80;1.35;;;0.40;99.90;;;;;;5056100;28;20230;-81
2023/01/25 07:49:58;;;;;;;5.68;4.72;;;0.40;99.90;;;;;;5055635;28;20198;-83
2023/01/25 07:52:26;;;;;;;1.25;1.15;;;0.50;99.90;;;;;;5056891;28;20649;-81
2023/01/25 07:54:53;;;;;;;0.70;0.70;;;0.50;99.90;;;;;;5057295;28;20250;-83
2023/01/25 07:57:20;;;;;;;2.58;1.98;;;0.40;99.90;;;;;;5057100;28;20286;-82
2023/01/25 07:59:48;;;;;;;0.60;0.55;;;0.40;99.90;;;;;;5056929;28;20284;-84
2023/01/25 08:02:15;;;;;;;0.70;0.70;;;0.40;99.90;;;;;;5057189;28;20572;-83
2023/01/25 08:04:44;;;;;;;2.47;2.25;;;0.40;99.90;;;;;;5057840;28;20683;-81
2023/01/25 08:07:11;;;;;;;0.50;0.50;;;0.40;99.90;;;;;;5057796;28;20186;-82
2023/01/25 08:09:40;;;;;;;0.60;0.50;;;0.40;99.90;;;;;;5059270;28;20285;-83
2023/01/25 08:12:07;;;;;;;2.00;1.90;;;0.40;99.90;;;;;;5057849;28;20207;-83
2023/01/25 08:14:34;;;;;;;0.50;0.40;;;0.20;99.90;;;;;;5057962;28;20194;-85
2023/01/25 08:17:01;;;;;;;5.47;5.18;;;0.20;99.90;;;;;;5057345;28;20277;-82
2023/01/25 08:19:28;;;;;;;3.20;3.00;;;0.20;99.90;;;;;;5056715;28;20209;-82
2023/01/25 08:21:55;;;;;;;0.50;0.40;;;0.30;99.90;;;;;;5056960;28;20198;-84
2023/01/25 08:24:22;;;;;;;0.50;0.40;;;0.40;99.90;;;;;;5059140;28;20194;-81
2023/01/25 08:26:50;;;;;;;0.50;0.40;;;0.50;99.90;;;;;;5058436;28;20290;-84
2023/01/25 08:29:17;;;;;;;0.50;0.40;;;0.50;99.90;;;;;;5059092;28;20197;-84
2023/01/25 08:31:44;;;;;;;0.50;0.50;;;0.50;99.90;;;;;;5056424;28;20249;-83
2023/01/25 08:34:11;;;;;;;2.45;2.35;;;0.50;99.90;;;;;;5058476;28;20735;-82
2023/01/25 08:36:38;;;;;;;0.70;0.70;;;0.60;99.90;;;;;;5058508;28;20214;-83
2023/01/25 08:39:07;;;;;;;1.63;1.63;;;0.60;99.90;;;;;;5058893;28;20234;-84
2023/01/25 08:41:35;;;;;;;0.75;0.75;;;0.50;99.90;;;;;;5056396;28;20195;-79
2023/01/25 08:44:04;;;;;;;0.50;0.40;;;0.40;99.90;;;;;;5057494;28;20286;-83
2023/01/25 08:46:33;;;;;;;0.70;0.70;;;0.40;99.90;;;;;;5055488;28;20226;-84
2023/01/25 08:49:01;;;;;;;0.50;0.40;;;0.50;99.90;;;;;;5056073;28;20650;-81
2023/01/25 08:51:30;;;;;;;0.50;0.40;;;0.50;99.90;;;;;;5056376;28;20752;-83
2023/01/25 08:53:56;;;;;;;0.50;0.40;;;0.50;99.90;;;;;;5055240;28;20675;-83
2023/01/25 08:56:23;;;;;;;0.85;0.85;;;0.50;99.90;;;;;;5055795;28;20604;-83
2023/01/25 08:58:50;;;;;;;0.82;0.80;;;0.60;99.90;;;;;;5058993;28;20229;-83
2023/01/25 09:01:20;;;;;;;0.50;0.45;;;0.60;99.90;;;;;;5060051;28;20195;-85
2023/01/25 09:03:48;;;;;;;0.80;0.80;;;0.50;99.90;;;;;;5058965;28;20221;-83
2023/01/25 09:06:16;;;;;;;4.03;1.45;;;0.60;99.90;;;;;;5060561;28;20218;-81
2023/01/25 09:08:43;;;;;;;0.50;0.50;;;0.60;99.90;;;;;;5059791;28;20233;-82
2023/01/25 09:11:12;;;;;;;1.90;1.50;;;0.60;99.90;;;;;;5059958;28;20205;-83
2023/01/25 09:13:42;;;;;;;0.50;0.50;;;0.50;99.90;;;;;;5059491;28;20238;-82
2023/01/25 09:16:10;;;;;;;3.83;1.75;;;0.70;99.90;;;;;;5061405;28;20223;-83
2023/01/25 09:18:40;;;;;;;2.35;2.25;;;0.70;99.90;;;;;;5061165;28;20634;-82
2023/01/25 09:21:07;;;;;;;1.85;0.70;;;0.80;99.90;;;;;;5065076;28;20195;-81
2023/01/25 09:23:34;;;;;;;0.95;0.95;;;0.70;99.90;;;;;;5064061;28;20179;-80
2023/01/25 09:26:02;;;;;;;22.55;8.75;;;0.60;99.90;;;;;;5062273;28;20627;-83
2023/01/25 09:28:31;;;;;;;0.88;0.88;;;0.70;99.90;;;;;;5063807;28;20191;-81
2023/01/25 09:30:59;;;;;;;0.50;0.50;;;0.50;99.90;;;;;;5065833;28;20228;-82
2023/01/25 09:33:27;;;;;;;2.70;2.58;;;0.60;99.90;;;;;;5064195;28;20652;-82
2023/01/25 09:35:55;;;;;;;5.25;4.88;;;0.60;99.90;;;;;;5065471;28;20290;-82
2023/01/25 09:38:22;;;;;;;8.27;4.50;;;0.70;99.90;;;;;;5065624;28;20222;-81
2023/01/25 09:41:06;;;;;;;0.60;0.40;;;0.80;99.90;;;;;;5063250;28;20545;-82
2023/01/25 09:43:53;;;;;;;3.10;1.67;;;0.70;99.90;;;;;;5066676;28;20175;-83
2023/01/25 09:46:27;;;;;;;4.43;4.03;;;0.60;99.90;;;;;;5065514;28;20211;-84
2023/01/25 09:49:04;;;;;;;0.60;0.40;;;0.80;99.90;;;;;;5065759;28;20183;-83
2023/01/25 09:51:49;;;;;;;0.90;0.90;;;0.80;99.90;;;;;;5062291;28;20221;-84
2023/01/25 09:54:18;;;;;;;1.65;1.55;;;0.80;99.90;;;;;;5064922;28;20193;-83
2023/01/25 09:56:49;;;;;;;0.50;0.50;;;1.00;99.90;;;;;;5065883;28;20237;-83
2023/01/25 09:59:19;;;;;;;1.45;1.27;;;1.00;99.90;;;;;;5066205;28;20210;-83
2023/01/25 10:01:50;;;;;;;11.88;4.88;;;1.10;99.90;;;;;;5065586;28;20230;-82
2023/01/25 10:04:21;;;;;;;0.60;0.60;;;1.10;99.90;;;;;;5069291;28;20221;-83
2023/01/25 10:06:53;;;;;;;3.05;2.45;;;1.00;99.90;;;;;;5070627;28;20218;-81
2023/01/25 10:09:29;;;;;;;1.77;1.67;;;1.00;99.90;;;;;;5063429;28;20199;-82
2023/01/25 10:11:58;;;;;;;8.93;7.90;;;1.10;99.90;;;;;;5067929;28;20233;-84
2023/01/25 10:14:25;;;;;;;0.50;0.40;;;1.10;99.90;;;;;;5062057;28;20225;-82
2023/01/25 10:17:09;;;;;;;2.20;2.00;;;1.10;99.90;;;;;;5064040;28;20580;-85
2023/01/25 10:19:51;;;;;;;6.13;1.95;;;1.00;99.90;;;;;;5065801;28;20179;-81
2023/01/25 10:22:22;;;;;;;2.38;1.05;;;0.90;99.90;;;;;;5063562;28;20210;-81
2023/01/25 10:25:19;;;;;;;1.80;1.70;;;0.90;99.90;;;;;;5064125;28;20233;-81
2023/01/25 10:27:55;;;;;;;0.60;0.60;;;0.70;99.90;;;;;;5034178;28;20684;-81
2023/01/25 10:30:27;;;;;;;1.90;1.83;;;0.90;99.90;;;;;;5060913;28;20205;-80
2023/01/25 10:32:59;;;;;;;1.30;1.30;;;1.00;99.90;;;;;;5058977;28;20212;-83
2023/01/25 10:35:30;;;;;;;5.15;4.70;;;1.10;99.90;;;;;;5058650;28;20218;-78
2023/01/25 10:38:03;;;;;;;1.95;1.85;;;1.10;99.90;;;;;;5059817;28;20190;-81
2023/01/25 10:40:39;;;;;;;3.75;3.55;;;1.20;99.90;;;;;;5062488;28;20262;-83
2023/01/25 10:43:15;;;;;;;2.28;2.17;;;1.20;99.90;;;;;;5062061;28;20198;-83
2023/01/25 10:45:43;;;;;;;3.33;2.63;;;1.30;99.90;;;;;;5061907;28;20290;-82
2023/01/25 10:48:15;;;;;;;0.60;0.40;;;1.30;99.90;;;;;;5061872;28;20200;-84
2023/01/25 10:50:45;;;;;;;11.15;5.93;;;1.20;99.90;;;;;;5062096;28;20230;-84
2023/01/25 10:53:32;;;;;;;3.00;2.88;;;1.20;99.90;;;;;;5060484;28;20297;-82
2023/01/25 10:56:06;;;;;;;1.35;1.35;;;1.20;99.90;;;;;;5059459;28;20218;-82
2023/01/25 10:58:35;;;;;;;3.97;2.67;;;1.20;99.90;;;;;;5057577;28;20226;-81
2023/01/25 11:01:05;;;;;;;4.07;3.67;;;1.10;99.90;;;;;;5065127;28;20217;-84
2023/01/25 11:03:38;;;;;;;6.00;5.50;;;1.10;99.90;;;;;;5065625;28;20182;-82
2023/01/25 11:06:06;;;;;;;1.02;1.02;;;1.10;99.90;;;;;;5060431;28;20225;-81
2023/01/25 11:08:37;;;;;;;7.18;3.63;;;1.20;99.90;;;;;;5062909;28;20296;-80
2023/01/25 11:11:24;;;;;;;1.83;0.80;;;1.30;99.90;;;;;;5062028;28;20214;-81
2023/01/25 11:13:53;;;;;;;0.50;0.40;;;1.30;99.90;;;;;;5061202;28;20226;-81
2023/01/25 11:16:32;;;;;;;0.60;0.50;;;1.40;99.90;;;;;;5058722;28;20226;-81
2023/01/25 11:19:01;;;;;;;0.50;0.40;;;1.50;99.90;;;;;;5058582;28;20183;-82
2023/01/25 11:21:29;;;;;;;1.02;1.02;;;1.50;99.90;;;;;;5060931;28;20202;-81
2023/01/25 11:24:16;;;;;;;0.50;0.40;;;1.30;99.90;;;;;;5059901;28;20282;-83
2023/01/25 11:26:44;;;;;;;0.50;0.50;;;1.40;99.90;;;;;;5059439;28;20210;-82
2023/01/25 11:29:14;;;;;;;7.63;6.65;;;1.50;99.90;;;;;;5058484;28;20270;-82
2023/01/25 11:31:44;;;;;;;2.08;1.98;;;1.60;99.90;;;;;;5057534;28;20198;-81
2023/01/25 11:34:14;;;;;;;0.50;0.40;;;1.60;99.90;;;;;;5060045;28;20218;-83
2023/01/25 11:37:09;;;;;;;8.18;3.25;;;1.50;99.90;;;;;;5061926;28;20214;-82
2023/01/25 11:39:48;;;;;;;0.50;0.45;;;1.40;99.90;;;;;;5060261;28;20214;-81
2023/01/25 11:42:27;;;;;;;7.35;1.55;;;1.20;99.90;;;;;;5059452;28;20195;-82
2023/01/25 11:45:31;;;;;;;0.98;0.98;;;1.30;99.90;;;;;;5058421;28;20813;-82
2023/01/25 11:48:14;;;;;;;4.43;2.47;;;1.40;99.90;;;;;;5058741;28;20221;-80
2023/01/25 11:50:46;;;;;;;2.45;1.95;;;1.50;99.90;;;;;;5060454;28;20179;-81
2023/01/25 11:53:33;;;;;;;4.60;3.38;;;1.50;99.90;;;;;;5058850;28;20271;-82
2023/01/25 11:56:11;;;;;;;0.63;0.63;;;1.50;99.90;;;;;;5059814;28;20295;-82
2023/01/25 11:58:54;;;;;;;3.75;2.90;;;1.50;99.90;;;;;;5060530;28;20265;-82
2023/01/25 12:01:27;;;;;;;5.55;5.05;;;1.50;99.90;;;;;;5061630;28;20269;-83
2023/01/25 12:04:35;;;;;;;5.50;3.97;;;1.50;99.90;;;;;;5060849;28;20195;-80
2023/01/25 12:07:04;;;;;;;2.83;2.10;;;1.50;99.90;;;;;;5058631;28;20681;-82
2023/01/25 12:10:01;;;;;;;4.28;3.88;;;1.40;99.90;;;;;;5058337;28;20280;-81
2023/01/25 12:12:41;;;;;;;10.48;4.18;;;1.30;99.90;;;;;;5044451;28;20614;-81
2023/01/25 12:15:34;;;;;;;2.05;1.95;;;1.30;99.90;;;;;;5058693;28;20214;-80
2023/01/25 12:18:24;;;;;;;2.92;1.90;;;1.30;99.90;;;;;;5058327;28;20254;-82
2023/01/25 12:21:02;;;;;;;1.80;1.70;;;1.30;99.90;;;;;;5060043;28;20186;-81
2023/01/25 12:23:40;;;;;;;8.18;3.08;;;1.30;99.90;;;;;;5057836;28;20615;-81
2023/01/25 12:26:19;;;;;;;8.23;6.28;;;1.30;99.90;;;;;;5058367;28;20281;-81
2023/01/25 12:28:51;;;;;;;0.90;0.90;;;1.30;99.90;;;;;;5060850;28;20209;-79
2023/01/25 12:31:23;;;;;;;5.35;4.82;;;1.20;99.90;;;;;;5062133;28;20178;-82
2023/01/25 12:33:54;;;;;;;2.97;2.78;;;1.20;99.90;;;;;;5062222;28;20229;-82
2023/01/25 12:36:27;;;;;;;1.60;1.60;;;1.20;99.90;;;;;;5064979;28;20248;-82
2023/01/25 12:38:59;;;;;;;5.88;5.43;;;1.20;99.90;;;;;;5060491;28;20213;-81
2023/01/25 12:41:35;;;;;;;6.82;3.53;;;1.20;99.90;;;;;;5063927;28;20201;-82
2023/01/25 12:44:11;;;;;;;13.55;8.30;;;1.20;99.90;;;;;;5064910;28;20641;-79
2023/01/25 12:46:43;;;;;;;0.85;0.85;;;1.20;99.90;;;;;;5063980;28;20228;-80
2023/01/25 12:49:21;;;;;;;17.40;7.72;;;1.10;99.90;;;;;;5064326;28;20265;-80
2023/01/25 12:51:49;;;;;;;3.97;3.83;;;1.10;99.90;;;;;;5064879;28;20646;-81
2023/01/25 12:54:22;;;;;;;8.38;4.35;;;1.10;99.90;;;;;;5061533;28;20221;-84
2023/01/25 12:56:58;;;;;;;0.50;0.50;;;1.20;99.90;;;;;;5064616;28;20308;-82
2023/01/25 12:59:36;;;;;;;5.47;2.55;;;1.20;99.90;;;;;;5065323;28;20182;-83
2023/01/25 13:02:18;;;;;;;12.18;4.22;;;1.20;99.90;;;;;;5065098;28;20199;-81
2023/01/25 13:04:59;;;;;;;10.25;2.08;;;1.20;99.90;;;;;;5060287;28;20175;-82
2023/01/25 13:07:36;;;;;;;0.50;0.50;;;1.30;99.90;;;;;;5063474;28;20225;-83
2023/01/25 13:10:12;;;;;;;5.50;5.03;;;1.30;99.90;;;;;;5063753;28;20225;-82
2023/01/25 13:12:53;;;;;;;1.45;1.40;;;1.30;99.90;;;;;;5061451;28;20269;-80
2023/01/25 13:15:38;;;;;;;18.27;14.98;;;1.30;99.90;;;;;;5061822;28;20218;-83
2023/01/25 13:18:35;;;;;;;7.40;6.75;;;1.40;99.90;;;;;;5063050;28;20187;-80